Time;durP1;ratioP1;P1;durP2;ratioP2;P2;SDS_P1;SDS_P2;PMS_P1;PMS_P2;Temp;Humidity;BMP_temperature;BMP_pressure;BME280_temperature;BME280_humidity;BME280_pressure;Samples;Min_cycle;Max_cycle;Signal;HPM_P1;HPM_P2
2022/01/30 00:02:12;;;;;;;7.30;4.28;;;;;;;-0.99;100.00;96545.31;5173146;27;20095;-53
2022/01/30 00:04:38;;;;;;;5.18;3.65;;;;;;;-1.03;100.00;96542.56;5173356;27;20050;-54
2022/01/30 00:07:05;;;;;;;6.90;4.40;;;;;;;-1.01;100.00;96534.13;5173443;27;20046;-53
2022/01/30 00:09:31;;;;;;;7.47;4.85;;;;;;;-0.88;100.00;96518.63;5173015;27;20424;-51
2022/01/30 00:12:01;;;;;;;5.40;3.63;;;;;;;-0.80;100.00;96501.50;5172846;27;20060;-52
2022/01/30 00:14:31;;;;;;;4.55;3.55;;;;;;;-0.91;100.00;96500.50;5173224;27;20105;-51
2022/01/30 00:17:03;;;;;;;5.43;3.65;;;;;;;-0.87;100.00;96493.28;5173527;27;20125;-51
2022/01/30 00:19:35;;;;;;;7.57;4.35;;;;;;;-0.90;100.00;96483.22;5173038;27;20054;-51
2022/01/30 00:22:14;;;;;;;4.30;3.05;;;;;;;-1.03;100.00;96479.94;5172786;27;20050;-51
2022/01/30 00:24:47;;;;;;;9.23;4.55;;;;;;;-0.92;100.00;96464.78;5172800;27;20046;-51
2022/01/30 00:27:18;;;;;;;5.25;3.65;;;;;;;-0.75;100.00;96455.47;5173038;27;20050;-52
2022/01/30 00:29:45;;;;;;;4.97;3.40;;;;;;;-0.73;100.00;96442.47;5172698;27;20056;-53
2022/01/30 00:32:11;;;;;;;4.22;3.50;;;;;;;-0.82;100.00;96440.00;5172698;27;20500;-53
2022/01/30 00:34:37;;;;;;;5.30;3.90;;;;;;;-0.88;100.00;96436.03;5172802;27;20504;-53
2022/01/30 00:37:04;;;;;;;6.28;4.25;;;;;;;-0.74;100.00;96430.91;5172548;27;20085;-51
2022/01/30 00:39:31;;;;;;;5.18;2.95;;;;;;;-0.76;100.00;96416.28;5172580;27;20424;-50
2022/01/30 00:41:57;;;;;;;4.00;3.20;;;;;;;-0.72;100.00;96411.72;5172538;27;20049;-52
2022/01/30 00:44:23;;;;;;;4.78;3.28;;;;;;;-0.69;100.00;96408.31;5172785;27;20043;-53
2022/01/30 00:46:50;;;;;;;5.88;3.80;;;;;;;-0.57;100.00;96397.34;5172593;27;20433;-51
2022/01/30 00:49:16;;;;;;;6.10;4.00;;;;;;;-0.53;100.00;96390.16;5172362;27;20077;-52
2022/01/30 00:51:42;;;;;;;7.75;3.92;;;;;;;-0.57;100.00;96380.44;5172419;27;20130;-51
2022/01/30 00:54:08;;;;;;;5.72;3.40;;;;;;;-0.52;100.00;96382.84;5172259;27;20054;-50
2022/01/30 00:56:35;;;;;;;5.15;2.90;;;;;;;-0.57;100.00;96367.75;5172766;27;20043;-54
2022/01/30 00:59:01;;;;;;;5.95;3.75;;;;;;;-0.62;100.00;96356.53;5172458;27;20050;-53
2022/01/30 01:01:27;;;;;;;5.15;3.38;;;;;;;-0.52;100.00;96354.00;5172615;27;20046;-54
2022/01/30 01:03:54;;;;;;;7.53;3.75;;;;;;;-0.56;100.00;96337.03;5172289;27;20061;-51
2022/01/30 01:06:20;;;;;;;5.95;3.00;;;;;;;-0.48;100.00;96336.00;5172805;27;20042;-51
2022/01/30 01:08:50;;;;;;;4.03;3.00;;;;;;;-0.53;100.00;96322.09;5172460;27;20623;-50
2022/01/30 01:11:41;;;;;;;6.65;3.92;;;;;;;-0.53;100.00;96306.72;5172199;27;20133;-51
2022/01/30 01:20:49;;;;;;;5.10;2.72;;;;;;;-0.43;100.00;96301.84;5171890;27;20046;-50
2022/01/30 01:25:09;;;;;;;4.70;2.67;;;;;;;-0.29;100.00;96251.69;5176236;27;20348;-50
2022/01/30 01:27:35;;;;;;;5.28;2.85;;;;;;;-0.33;100.00;96250.88;5176148;27;20046;-54
2022/01/30 01:30:02;;;;;;;5.35;3.22;;;;;;;-0.21;100.00;96244.47;5175590;27;20053;-51
2022/01/30 01:32:28;;;;;;;3.17;2.45;;;;;;;-0.18;100.00;96232.19;5175848;27;20050;-54
2022/01/30 01:34:55;;;;;;;3.80;2.85;;;;;;;-0.20;100.00;96219.13;5175754;27;20137;-54
2022/01/30 01:37:22;;;;;;;4.90;3.20;;;;;;;-0.21;100.00;96224.84;5175714;27;20485;-52
2022/01/30 01:39:48;;;;;;;4.03;2.70;;;;;;;-0.09;100.00;96206.53;5175459;27;20089;-52
2022/01/30 01:42:15;;;;;;;5.05;2.50;;;;;;;-0.19;100.00;96201.03;5175680;27;20584;-51
2022/01/30 01:44:46;;;;;;;3.00;2.70;;;;;;;-0.17;100.00;96174.50;5175728;27;20050;-51
2022/01/30 01:47:13;;;;;;;4.40;2.95;;;;;;;-0.10;100.00;96177.28;5175569;27;20042;-51
2022/01/30 01:49:40;;;;;;;3.38;2.50;;;;;;;-0.18;100.00;96165.66;5175307;27;20050;-54
2022/01/30 01:52:22;;;;;;;3.25;2.53;;;;;;;-0.17;100.00;96153.72;5175733;27;20046;-52
2022/01/30 01:54:50;;;;;;;3.47;2.88;;;;;;;-0.13;100.00;96157.25;5175424;27;20057;-53
2022/01/30 01:57:17;;;;;;;5.47;3.33;;;;;;;-0.08;100.00;96148.84;5175263;27;20053;-53
2022/01/30 01:59:43;;;;;;;5.72;3.13;;;;;;;-0.01;100.00;96140.84;5175595;27;20050;-55
2022/01/30 02:02:10;;;;;;;2.60;2.40;;;;;;;-0.03;100.00;96132.38;5175169;27;20078;-55
2022/01/30 02:04:39;;;;;;;4.45;3.05;;;;;;;0.02;100.00;96127.78;5175446;27;20046;-51
2022/01/30 02:07:31;;;;;;;6.45;3.47;;;;;;;0.04;100.00;96125.50;5175206;27;20054;-51
2022/01/30 02:10:02;;;;;;;5.38;3.30;;;;;;;0.18;100.00;96107.53;5175061;27;20521;-53
2022/01/30 02:12:35;;;;;;;4.20;2.65;;;;;;;0.14;100.00;96095.19;5175418;27;20054;-54
2022/01/30 02:15:16;;;;;;;3.53;2.40;;;;;;;0.21;100.00;96097.94;5175009;27;20057;-54
2022/01/30 02:26:07;;;;;;;4.10;2.95;;;;;;;0.29;100.00;96050.28;5167770;27;20864;-52
2022/01/30 02:28:34;;;;;;;2.80;2.40;;;;;;;0.17;100.00;96059.44;5174957;27;20050;-50
2022/01/30 02:31:05;;;;;;;3.90;2.58;;;;;;;0.20;100.00;96037.13;5175039;27;20133;-51
2022/01/30 02:33:32;;;;;;;2.97;2.55;;;;;;;0.15;100.00;96032.84;5174524;27;20128;-51
2022/01/30 02:35:58;;;;;;;4.82;3.08;;;;;;;0.24;100.00;96029.84;5174859;27;20616;-53
2022/01/30 02:38:26;;;;;;;4.47;2.75;;;;;;;0.28;100.00;96022.56;5174521;27;20521;-51
2022/01/30 02:40:55;;;;;;;3.75;2.58;;;;;;;0.27;100.00;96012.16;5174483;27;20050;-51
2022/01/30 02:43:26;;;;;;;4.07;2.85;;;;;;;0.40;100.00;96016.88;5174501;27;20050;-51
2022/01/30 02:46:04;;;;;;;2.42;2.22;;;;;;;0.44;100.00;96004.19;5174899;27;20137;-52
2022/01/30 02:48:45;;;;;;;2.67;2.47;;;;;;;0.36;100.00;96004.53;5174616;27;20050;-53
2022/01/30 02:51:14;;;;;;;4.63;2.55;;;;;;;0.39;100.00;96003.78;5174250;27;20520;-51
2022/01/30 02:53:46;;;;;;;3.35;2.97;;;;;;;0.47;100.00;96002.69;5174675;27;20050;-52
2022/01/30 02:56:12;;;;;;;4.05;3.22;;;;;;;0.41;100.00;95982.63;5174400;27;20042;-51
2022/01/30 02:58:38;;;;;;;3.95;2.80;;;;;;;0.47;100.00;95976.50;5174568;27;20077;-53
2022/01/30 03:01:05;;;;;;;3.70;1.85;;;;;;;0.34;100.00;95974.50;5174301;27;20042;-52
2022/01/30 03:03:31;;;;;;;3.30;3.00;;;;;;;0.34;100.00;95977.19;5174432;27;20050;-51
2022/01/30 03:05:57;;;;;;;4.20;3.05;;;;;;;0.51;100.00;95967.66;5174300;27;20102;-53
2022/01/30 03:08:24;;;;;;;4.30;2.83;;;;;;;0.53;100.00;95949.19;5174035;27;20101;-52
2022/01/30 03:10:50;;;;;;;2.50;2.30;;;;;;;0.41;100.00;95934.88;5174138;27;20117;-52
2022/01/30 03:13:17;;;;;;;2.72;2.53;;;;;;;0.56;100.00;95935.72;5174294;27;20054;-55
2022/01/30 03:15:43;;;;;;;4.97;3.17;;;;;;;0.61;100.00;95932.66;5174122;27;20515;-53
2022/01/30 03:18:09;;;;;;;4.20;2.63;;;;;;;0.62;100.00;95931.50;5174063;27;20153;-54
2022/01/30 03:20:35;;;;;;;3.08;2.60;;;;;;;0.52;100.00;95916.06;5174071;27;20053;-51
2022/01/30 03:23:02;;;;;;;3.17;2.88;;;;;;;0.56;100.00;95921.47;5173491;27;20365;-53
2022/01/30 03:25:32;;;;;;;3.70;2.75;;;;;;;0.67;100.00;95919.59;5174078;27;20141;-55
2022/01/30 03:28:00;;;;;;;3.45;3.15;;;;;;;0.75;100.00;95921.16;5173877;27;20079;-54
2022/01/30 03:30:29;;;;;;;4.55;2.95;;;;;;;0.81;100.00;95913.50;5173948;27;20492;-53
2022/01/30 03:32:56;;;;;;;3.10;2.60;;;;;;;0.79;100.00;95913.88;5173791;27;20047;-56
2022/01/30 03:35:22;;;;;;;3.33;3.03;;;;;;;0.78;100.00;95912.31;5173679;27;20050;-54
2022/01/30 03:37:49;;;;;;;4.03;3.25;;;;;;;0.89;100.00;95915.06;5173996;27;20461;-55
2022/01/30 03:40:15;;;;;;;3.40;3.10;;;;;;;0.87;100.00;95914.69;5173520;27;20054;-56
2022/01/30 03:42:41;;;;;;;5.78;3.70;;;;;;;0.82;100.00;95915.81;5173580;27;20057;-55
2022/01/30 03:45:09;;;;;;;6.35;3.72;;;;;;;0.87;100.00;95920.06;5173128;27;20057;-55
2022/01/30 03:47:36;;;;;;;5.22;3.92;;;;;;;0.98;100.00;95906.63;5173412;27;20133;-57
2022/01/30 03:50:03;;;;;;;4.10;3.70;;;;;;;1.09;100.00;95904.69;5173475;27;20428;-56
2022/01/30 03:52:29;;;;;;;4.68;3.78;;;;;;;1.09;100.00;95910.09;5173442;27;20047;-55
2022/01/30 03:54:55;;;;;;;6.38;4.22;;;;;;;1.05;100.00;95914.72;5173338;27;20057;-56
2022/01/30 03:57:21;;;;;;;4.95;4.05;;;;;;;1.15;100.00;95916.66;5173548;27;20398;-56
2022/01/30 03:59:47;;;;;;;5.00;3.92;;;;;;;1.25;100.00;95898.97;5173329;27;20061;-56
2022/01/30 04:02:14;;;;;;;3.80;3.15;;;;;;;1.22;100.00;95907.81;5173479;27;20053;-56
2022/01/30 04:04:41;;;;;;;5.72;3.55;;;;;;;1.25;100.00;95915.91;5173582;27;20047;-54
2022/01/30 04:07:08;;;;;;;4.35;3.60;;;;;;;1.20;100.00;95915.50;5173061;27;20046;-55
2022/01/30 04:09:35;;;;;;;4.60;3.65;;;;;;;1.27;100.00;95910.16;5172984;27;20425;-54
2022/01/30 04:12:01;;;;;;;5.28;3.60;;;;;;;1.34;100.00;95910.94;5172997;27;20054;-53
2022/01/30 04:14:29;;;;;;;4.22;3.60;;;;;;;1.36;100.00;95913.22;5173182;27;20054;-55
2022/01/30 04:16:57;;;;;;;3.95;3.45;;;;;;;1.42;100.00;95923.25;5172951;27;20046;-56
2022/01/30 04:19:24;;;;;;;5.18;3.53;;;;;;;1.40;100.00;95904.00;5173184;27;20458;-52
2022/01/30 04:21:51;;;;;;;4.13;3.58;;;;;;;1.45;100.00;95915.56;5172941;27;20046;-54
2022/01/30 04:24:17;;;;;;;6.25;4.07;;;;;;;1.51;100.00;95922.13;5172412;27;20046;-55
2022/01/30 04:26:44;;;;;;;4.57;3.47;;;;;;;1.49;100.00;95919.03;5172923;27;20420;-52
2022/01/30 04:29:11;;;;;;;9.52;4.13;;;;;;;1.42;100.00;95917.88;5172938;27;20105;-56
2022/01/30 04:31:38;;;;;;;5.75;4.15;;;;;;;1.46;100.00;95917.88;5172899;27;20054;-53
2022/01/30 04:34:05;;;;;;;7.13;4.20;;;;;;;1.57;100.00;95921.38;5172783;27;20056;-55
2022/01/30 04:36:39;;;;;;;5.00;4.18;;;;;;;1.55;100.00;95915.56;5172645;27;20534;-55
2022/01/30 04:39:14;;;;;;;4.82;3.90;;;;;;;1.53;100.00;95919.81;5172889;27;20401;-55
2022/01/30 04:42:08;;;;;;;4.60;3.80;;;;;;;1.54;100.00;95921.38;5172788;27;20133;-54
2022/01/30 04:53:07;;;;;;;5.82;4.40;;;;;;;1.62;100.00;95926.38;5172766;27;19947;-53
2022/01/30 04:58:23;;;;;;;4.32;3.58;;;;;;;1.66;100.00;95920.97;5171449;27;20049;-56
2022/01/30 05:01:03;;;;;;;5.38;4.32;;;;;;;1.56;100.00;95924.44;5172760;27;20168;-55
2022/01/30 05:03:40;;;;;;;6.20;3.95;;;;;;;1.59;100.00;95920.97;5172286;27;20042;-55
2022/01/30 05:06:10;;;;;;;8.73;4.10;;;;;;;1.51;100.00;95914.81;5172419;27;20046;-56
2022/01/30 05:08:37;;;;;;;7.53;4.20;;;;;;;1.46;100.00;95920.56;5172541;27;20132;-55
2022/01/30 05:11:06;;;;;;;6.32;3.58;;;;;;;1.53;100.00;95917.09;5172117;27;20105;-57
2022/01/30 05:13:36;;;;;;;4.82;3.83;;;;;;;1.52;100.00;95915.56;5172317;27;20401;-55
2022/01/30 05:16:03;;;;;;;6.22;3.97;;;;;;;1.46;100.00;95903.59;5172180;27;20046;-57
2022/01/30 05:18:32;;;;;;;5.85;3.65;;;;;;;1.45;100.00;95910.16;5172358;27;20094;-54
2022/01/30 05:20:58;;;;;;;3.63;3.22;;;;;;;1.52;100.00;95910.94;5171990;27;20068;-56
2022/01/30 05:23:25;;;;;;;11.68;3.78;;;;;;;1.54;100.00;95911.34;5171727;27;20050;-56
2022/01/30 05:25:53;;;;;;;9.13;3.47;;;;;;;1.60;100.00;95904.41;5172095;27;20516;-56
2022/01/30 05:28:22;;;;;;;8.25;3.88;;;;;;;1.59;100.00;95902.06;5172073;27;20086;-56
2022/01/30 05:30:49;;;;;;;6.13;4.03;;;;;;;1.63;100.00;95910.94;5171695;27;20464;-56
2022/01/30 05:33:16;;;;;;;6.05;3.97;;;;;;;1.67;100.00;95900.13;5171943;27;20052;-57
2022/01/30 05:35:43;;;;;;;5.00;3.70;;;;;;;1.67;100.00;95911.72;5171837;27;20047;-57
2022/01/30 05:38:10;;;;;;;6.40;4.13;;;;;;;1.72;100.00;95915.97;5171977;27;20046;-57
2022/01/30 05:40:37;;;;;;;6.38;4.15;;;;;;;1.70;100.00;95912.88;5172032;27;20050;-56
2022/01/30 05:43:05;;;;;;;8.18;4.45;;;;;;;1.76;100.00;95908.63;5171841;27;20433;-56
2022/01/30 05:45:35;;;;;;;6.38;3.83;;;;;;;1.73;100.00;95920.19;5171812;27;20132;-56
2022/01/30 05:48:06;;;;;;;8.45;4.82;;;;;;;1.73;100.00;95918.25;5171922;27;20057;-56
2022/01/30 05:50:33;;;;;;;6.53;3.85;;;;;;;1.78;100.00;95909.78;5171920;27;20057;-57
2022/01/30 05:53:00;;;;;;;6.28;4.15;;;;;;;1.79;100.00;95919.44;5171907;27;20051;-57
2022/01/30 05:55:26;;;;;;;9.68;4.65;;;;;;;1.85;100.00;95917.88;5171877;27;20047;-57
2022/01/30 05:57:52;;;;;;;8.00;3.63;;;;;;;1.80;100.00;95920.19;5171703;27;20103;-57
2022/01/30 06:00:19;;;;;;;6.75;3.63;;;;;;;1.79;100.00;95924.81;5172255;27;20042;-58
2022/01/30 06:02:46;;;;;;;11.02;3.88;;;;;;;1.81;100.00;95922.53;5171971;27;20528;-57
2022/01/30 06:05:15;;;;;;;12.45;4.78;;;;;;;1.83;100.00;95920.22;5172013;27;20042;-57
2022/01/30 06:07:48;;;;;;;7.85;3.10;;;;;;;1.77;100.00;95927.16;5172038;27;20089;-55
2022/01/30 06:10:15;;;;;;;8.05;3.38;;;;;;;1.81;100.00;95925.22;5174145;27;20501;-57
2022/01/30 06:12:41;;;;;;;11.48;3.95;;;;;;;1.88;100.00;95917.13;5175233;27;20049;-56
2022/01/30 06:15:08;;;;;;;10.77;3.35;;;;;;;1.89;100.00;95918.66;5175173;27;20137;-56
2022/01/30 06:17:35;;;;;;;6.45;3.20;;;;;;;1.96;100.00;95925.97;5175164;27;20045;-57
2022/01/30 06:20:01;;;;;;;6.38;3.08;;;;;;;1.94;100.00;95932.94;5175260;27;20053;-56
2022/01/30 06:22:27;;;;;;;8.38;2.92;;;;;;;1.96;100.00;95930.63;5174750;27;20046;-57
2022/01/30 06:24:54;;;;;;;6.78;2.85;;;;;;;1.87;100.00;95928.31;5174294;27;20429;-56
2022/01/30 06:27:20;;;;;;;17.77;3.60;;;;;;;1.91;100.00;95931.78;5174782;27;20050;-56
2022/01/30 06:29:46;;;;;;;5.57;2.92;;;;;;;1.91;100.00;95931.00;5174866;27;20141;-55
2022/01/30 06:32:14;;;;;;;5.40;2.70;;;;;;;1.85;100.00;95927.91;5174878;27;20425;-56
2022/01/30 06:34:40;;;;;;;5.68;3.10;;;;;;;1.94;100.00;95935.66;5174528;27;20088;-55
2022/01/30 06:37:07;;;;;;;5.05;3.05;;;;;;;1.96;100.00;95927.91;5174515;27;20046;-53
2022/01/30 06:39:33;;;;;;;9.80;2.90;;;;;;;2.04;100.00;95934.88;5174750;27;20140;-55
2022/01/30 06:41:59;;;;;;;8.82;3.67;;;;;;;2.03;100.00;95936.00;5174765;27;20493;-56
2022/01/30 06:44:26;;;;;;;7.65;2.58;;;;;;;2.07;100.00;95939.50;5174988;27;20355;-55
2022/01/30 06:46:52;;;;;;;8.32;3.38;;;;;;;2.03;100.00;95944.91;5174917;27;20455;-55
2022/01/30 06:49:18;;;;;;;8.40;2.85;;;;;;;2.10;100.00;95949.53;5174460;27;20060;-55
2022/01/30 06:51:45;;;;;;;6.53;2.63;;;;;;;2.11;100.00;95951.06;5174280;27;20046;-54
2022/01/30 06:54:11;;;;;;;8.93;3.25;;;;;;;2.01;100.00;95957.25;5174270;27;20042;-54
2022/01/30 06:56:38;;;;;;;9.05;2.88;;;;;;;1.98;100.00;95956.09;5174365;27;20054;-53
2022/01/30 06:59:04;;;;;;;8.52;3.05;;;;;;;1.99;100.00;95952.22;5174355;27;20050;-55
2022/01/30 07:01:30;;;;;;;9.48;3.47;;;;;;;2.02;100.00;95958.78;5174515;27;20479;-55
2022/01/30 07:03:56;;;;;;;6.18;2.83;;;;;;;1.99;100.00;95962.25;5174279;27;20497;-56
2022/01/30 07:06:23;;;;;;;17.20;3.97;;;;;;;2.09;100.00;95958.78;5174346;27;20144;-55
2022/01/30 07:08:50;;;;;;;7.53;3.03;;;;;;;2.11;100.00;95951.06;5174344;27;20088;-55
2022/01/30 07:11:16;;;;;;;8.07;3.10;;;;;;;2.05;100.00;95949.91;5174187;27;20509;-55
2022/01/30 07:13:43;;;;;;;10.00;3.13;;;;;;;2.10;100.00;95949.53;5174031;27;20046;-56
2022/01/30 07:16:09;;;;;;;8.70;2.80;;;;;;;2.17;100.00;95952.22;5174103;27;20046;-56
2022/01/30 07:18:35;;;;;;;9.25;2.72;;;;;;;2.23;100.00;95955.28;5173890;27;20046;-55
2022/01/30 07:21:03;;;;;;;6.82;2.83;;;;;;;2.26;100.00;95963.38;5172875;27;20050;-57
2022/01/30 07:23:30;;;;;;;9.25;2.38;;;;;;;2.32;100.00;95967.25;5173626;27;20046;-56
2022/01/30 07:25:57;;;;;;;10.10;2.58;;;;;;;2.33;100.00;95966.09;5173855;27;20046;-56
2022/01/30 07:28:23;;;;;;;10.40;3.20;;;;;;;2.31;100.00;95968.41;5174099;27;20414;-56
2022/01/30 07:30:49;;;;;;;6.18;2.50;;;;;;;2.33;100.00;95982.31;5173876;27;20501;-56
2022/01/30 07:33:16;;;;;;;6.53;2.30;;;;;;;2.39;100.00;95988.09;5173506;27;20094;-54
2022/01/30 07:35:42;;;;;;;8.93;2.25;;;;;;;2.44;100.00;95990.41;5173638;27;20434;-56
2022/01/30 07:38:09;;;;;;;13.23;2.95;;;;;;;2.50;100.00;95993.47;5173888;27;20057;-58
2022/01/30 07:40:36;;;;;;;8.77;2.33;;;;;;;2.48;100.00;95993.88;5173652;27;20057;-56
2022/01/30 07:43:03;;;;;;;7.72;2.70;;;;;;;2.49;100.00;96010.88;5173746;27;20074;-55
2022/01/30 07:45:29;;;;;;;12.00;3.10;;;;;;;2.49;100.00;96022.44;5173407;27;20077;-56
2022/01/30 07:47:56;;;;;;;8.60;2.58;;;;;;;2.54;100.00;96026.72;5173408;27;20042;-56
2022/01/30 07:50:22;;;;;;;10.23;2.63;;;;;;;2.57;100.00;96042.16;5173194;27;20042;-57
2022/01/30 07:52:48;;;;;;;10.27;2.70;;;;;;;2.65;100.00;96049.09;5173603;27;20496;-56
2022/01/30 07:55:14;;;;;;;10.40;2.25;;;;;;;2.68;100.00;96059.16;5173478;27;20046;-57
2022/01/30 07:57:42;;;;;;;11.27;2.20;;;;;;;2.76;100.00;96068.78;5173372;27;20046;-56
2022/01/30 08:00:10;;;;;;;10.98;2.05;;;;;;;2.70;100.00;96074.97;5173305;27;20092;-58
2022/01/30 08:02:36;;;;;;;15.23;2.50;;;;;;;2.61;100.00;96088.91;5173306;27;20049;-57
2022/01/30 08:05:02;;;;;;;9.35;2.20;;;;;;;2.67;100.00;96094.72;5173494;27;20058;-57
2022/01/30 08:07:29;;;;;;;13.73;2.20;;;;;;;2.74;100.00;96102.81;5173096;27;20406;-59
2022/01/30 08:09:56;;;;;;;11.32;2.72;;;;;;;2.77;100.00;96108.22;5173236;27;20046;-57
2022/01/30 08:12:22;;;;;;;9.00;2.05;;;;;;;2.70;100.00;96120.94;5173160;27;20532;-57
2022/01/30 08:14:48;;;;;;;11.68;2.33;;;;;;;2.70;100.00;96129.06;5173047;27;20089;-58
2022/01/30 08:17:21;;;;;;;8.52;2.47;;;;;;;2.73;100.00;96131.78;5172984;27;20050;-57
2022/01/30 08:19:47;;;;;;;10.25;2.22;;;;;;;2.72;100.00;96134.88;5172911;27;20141;-58
2022/01/30 08:22:14;;;;;;;9.77;2.10;;;;;;;2.68;100.00;96145.69;5172897;27;20050;-57
2022/01/30 08:24:40;;;;;;;12.25;2.10;;;;;;;2.74;100.00;96148.78;5172574;27;20094;-59
2022/01/30 08:27:07;;;;;;;11.88;2.47;;;;;;;2.73;100.00;96158.06;5172927;27;20052;-57
2022/01/30 08:29:33;;;;;;;8.07;2.22;;;;;;;2.77;100.00;96167.72;5172783;27;20090;-57
2022/01/30 08:32:00;;;;;;;12.05;2.50;;;;;;;2.79;100.00;96170.81;5172421;27;20050;-58
2022/01/30 08:34:27;;;;;;;11.82;2.20;;;;;;;2.87;100.00;96187.06;5172831;27;20057;-57
2022/01/30 08:36:53;;;;;;;12.07;2.13;;;;;;;2.95;100.00;96202.13;5172781;27;20042;-59
2022/01/30 08:39:20;;;;;;;12.68;2.55;;;;;;;2.93;100.00;96207.13;5172668;27;20134;-58
2022/01/30 08:41:46;;;;;;;15.02;1.88;;;;;;;2.91;100.00;96226.47;5172749;27;20046;-57
2022/01/30 08:44:12;;;;;;;12.85;2.08;;;;;;;2.91;100.00;96231.88;5172294;27;20053;-57
2022/01/30 08:46:38;;;;;;;20.63;2.80;;;;;;;3.01;100.00;96236.53;5172561;27;20081;-59
2022/01/30 08:49:05;;;;;;;14.63;2.83;;;;;;;3.13;100.00;96243.47;5172739;27;20049;-58
2022/01/30 08:51:32;;;;;;;6.65;2.03;;;;;;;3.18;100.00;96262.06;5172689;27;20190;-57
2022/01/30 08:53:58;;;;;;;10.52;2.20;;;;;;;3.20;100.00;96276.00;5172441;27;20118;-57
2022/01/30 08:56:24;;;;;;;8.38;2.35;;;;;;;3.22;100.00;96313.50;5172437;27;20569;-57
2022/01/30 08:58:50;;;;;;;13.25;2.53;;;;;;;3.28;100.00;96323.56;5172756;27;20112;-57
2022/01/30 09:01:17;;;;;;;16.17;2.42;;;;;;;3.30;100.00;96342.13;5172664;27;20054;-57
2022/01/30 09:03:43;;;;;;;12.30;2.63;;;;;;;3.29;100.00;96363.00;5172709;27;20046;-58
2022/01/30 09:06:11;;;;;;;8.18;2.13;;;;;;;3.36;100.00;96378.47;5172713;27;20506;-57
2022/01/30 09:08:38;;;;;;;12.68;1.73;;;;;;;3.38;100.00;96387.00;5172898;27;20106;-57
2022/01/30 09:11:06;;;;;;;10.02;2.20;;;;;;;3.36;100.00;96392.03;5172402;27;20171;-57
2022/01/30 09:13:33;;;;;;;10.27;1.90;;;;;;;3.34;100.00;96407.13;5172272;27;20462;-57
2022/01/30 09:16:01;;;;;;;8.40;2.30;;;;;;;3.41;100.00;96402.47;5172223;27;20050;-57
2022/01/30 09:18:28;;;;;;;12.05;2.60;;;;;;;3.40;100.00;96425.31;5172119;27;20088;-57
2022/01/30 09:20:55;;;;;;;11.50;2.58;;;;;;;3.50;100.00;96429.22;5172148;27;20524;-58
2022/01/30 09:23:22;;;;;;;12.38;2.20;;;;;;;3.55;100.00;96423.41;5172079;27;20160;-57
2022/01/30 09:25:50;;;;;;;12.60;2.25;;;;;;;3.64;100.00;96428.44;5171933;27;20141;-59
2022/01/30 09:28:17;;;;;;;12.63;2.33;;;;;;;3.70;100.00;96433.09;5171802;27;20133;-58
2022/01/30 09:30:43;;;;;;;20.25;2.72;;;;;;;3.59;100.00;96439.66;5171697;27;20144;-57
2022/01/30 09:33:10;;;;;;;10.95;2.65;;;;;;;3.76;100.00;96441.59;5172013;27;20516;-59
2022/01/30 09:35:37;;;;;;;18.10;2.80;;;;;;;3.73;100.00;96437.75;5171888;27;20086;-57
2022/01/30 09:38:04;;;;;;;12.55;2.25;;;;;;;3.55;100.00;96436.94;5171978;27;20072;-59
2022/01/30 09:40:30;;;;;;;23.98;2.92;;;;;;;3.60;100.00;96431.16;5171887;27;20519;-58
2022/01/30 09:42:58;;;;;;;12.43;2.65;;;;;;;3.66;100.00;96434.22;5171667;27;20141;-58
2022/01/30 09:45:26;;;;;;;12.52;2.30;;;;;;;3.63;100.00;96429.59;5174791;27;20053;-58
2022/01/30 09:47:52;;;;;;;10.98;2.72;;;;;;;3.60;100.00;96417.59;5175231;27;20053;-57
2022/01/30 09:50:21;;;;;;;14.32;2.40;;;;;;;3.67;100.00;96424.97;5175534;27;20506;-56
2022/01/30 09:52:48;;;;;;;18.48;2.60;;;;;;;3.64;100.00;96420.31;5175476;27;20050;-58
2022/01/30 09:55:15;;;;;;;18.80;2.83;;;;;;;3.64;100.00;96425.75;5175452;27;20046;-59
2022/01/30 09:57:43;;;;;;;15.38;2.33;;;;;;;3.67;100.00;96424.97;5175785;27;20404;-58
2022/01/30 10:00:11;;;;;;;22.63;3.10;;;;;;;3.71;100.00;96434.63;5175305;27;20054;-59
2022/01/30 10:02:40;;;;;;;11.38;2.58;;;;;;;3.86;100.00;96427.28;5175245;27;20529;-59
2022/01/30 10:05:08;;;;;;;13.52;2.53;;;;;;;4.13;100.00;96440.44;5175304;27;20097;-57
2022/01/30 10:07:41;;;;;;;13.85;3.33;;;;;;;4.31;100.00;96433.06;5175188;27;20046;-59
2022/01/30 10:10:09;;;;;;;14.57;2.03;;;;;;;4.24;100.00;96414.09;5175187;27;20050;-59
2022/01/30 10:12:35;;;;;;;11.27;1.98;;;;;;;4.25;100.00;96405.56;5174895;27;20480;-59
2022/01/30 10:15:04;;;;;;;13.13;2.65;;;;;;;4.24;100.00;96406.72;5175189;27;20052;-59
2022/01/30 10:17:34;;;;;;;10.65;2.20;;;;;;;4.26;100.00;96403.63;5174286;27;20052;-56
2022/01/30 10:20:03;;;;;;;13.23;1.85;;;;;;;4.32;100.00;96401.28;5175130;27;20085;-57
2022/01/30 10:22:30;;;;;;;16.65;2.90;;;;;;;4.22;100.00;96390.06;5174917;27;20102;-57
2022/01/30 10:24:57;;;;;;;16.73;2.53;;;;;;;4.14;100.00;96390.50;5174709;27;20042;-57
2022/01/30 10:27:25;;;;;;;9.73;2.30;;;;;;;4.06;100.00;96388.94;5175067;27;20444;-57
2022/01/30 10:30:00;;;;;;;12.95;3.05;;;;;;;3.96;100.00;96393.97;5174640;27;20088;-56
2022/01/30 10:32:27;;;;;;;18.98;2.80;;;;;;;3.79;100.00;96405.59;5174514;27;20089;-56
2022/01/30 10:35:00;;;;;;;11.80;2.40;;;;;;;3.72;100.00;96414.50;5175119;27;20095;-57
2022/01/30 10:37:27;;;;;;;19.42;2.90;;;;;;;3.61;100.00;96429.97;5174628;27;20075;-57
2022/01/30 10:40:03;;;;;;;17.55;2.65;;;;;;;3.49;100.00;96428.41;5174557;27;20099;-56
2022/01/30 10:42:32;;;;;;;16.15;2.67;;;;;;;3.45;100.00;96441.19;5175038;27;20500;-55
2022/01/30 10:44:59;;;;;;;16.50;3.38;;;;;;;3.37;100.00;96430.72;5174366;27;20474;-56
2022/01/30 10:47:25;;;;;;;17.52;2.88;;;;;;;3.28;100.00;96431.09;5174584;27;20519;-56
2022/01/30 10:49:53;;;;;;;17.85;2.75;;;;;;;3.28;100.00;96433.78;5174416;27;20108;-56
2022/01/30 10:52:22;;;;;;;18.23;2.78;;;;;;;3.28;100.00;96426.44;5156031;27;20042;-57
2022/01/30 10:54:51;;;;;;;19.92;2.75;;;;;;;3.24;100.00;96427.59;5173763;27;20058;-55
2022/01/30 10:57:18;;;;;;;28.15;3.53;;;;;;;3.27;100.00;96424.13;5173514;27;20056;-56
2022/01/30 10:59:53;;;;;;;20.77;2.80;;;;;;;3.20;100.00;96424.09;5174382;27;20106;-57
2022/01/30 11:02:23;;;;;;;16.30;2.90;;;;;;;3.19;100.00;96420.59;5174290;27;20046;-56
2022/01/30 11:04:50;;;;;;;12.95;2.72;;;;;;;3.18;100.00;96416.38;5174526;27;20651;-58
2022/01/30 11:07:27;;;;;;;12.52;2.80;;;;;;;3.22;100.00;96414.44;5174470;27;20603;-57
2022/01/30 11:10:04;;;;;;;17.05;2.72;;;;;;;3.17;100.00;96414.06;5174472;27;20425;-56
2022/01/30 11:12:38;;;;;;;8.10;2.33;;;;;;;3.09;100.00;96415.19;5174102;27;20505;-56
2022/01/30 11:15:17;;;;;;;16.33;2.75;;;;;;;3.14;100.00;96412.09;5174314;27;20398;-56
2022/01/30 11:17:45;;;;;;;25.80;3.40;;;;;;;3.10;100.00;96406.69;5174056;27;20182;-56
2022/01/30 11:20:13;;;;;;;16.60;2.60;;;;;;;3.12;100.00;96419.81;5173882;27;20061;-56
2022/01/30 11:22:45;;;;;;;15.80;2.70;;;;;;;3.20;100.00;96415.97;5174230;27;20110;-56
2022/01/30 11:25:13;;;;;;;11.60;3.00;;;;;;;3.12;100.00;96415.19;5173450;27;20050;-56
2022/01/30 11:27:42;;;;;;;20.20;3.80;;;;;;;3.24;100.00;96412.13;5173945;27;20046;-56
2022/01/30 11:30:11;;;;;;;13.52;2.63;;;;;;;3.27;100.00;96402.47;5173718;27;20054;-57
2022/01/30 11:32:39;;;;;;;14.48;2.95;;;;;;;3.26;100.00;96398.97;5173888;27;20057;-56
2022/01/30 11:35:07;;;;;;;11.20;3.08;;;;;;;3.33;100.00;96400.91;5173700;27;20479;-56
2022/01/30 11:37:37;;;;;;;11.52;2.85;;;;;;;3.37;100.00;96390.13;5173466;27;20042;-55
2022/01/30 11:40:13;;;;;;;11.57;2.47;;;;;;;3.50;100.00;96386.63;5173633;27;20050;-56
2022/01/30 11:42:41;;;;;;;17.60;3.20;;;;;;;3.53;100.00;96371.53;5173780;27;20050;-54
2022/01/30 11:45:17;;;;;;;14.40;2.40;;;;;;;3.57;100.00;96363.44;5173722;27;20058;-56
2022/01/30 11:47:46;;;;;;;15.80;2.33;;;;;;;3.49;100.00;96340.97;5173440;27;20054;-56
2022/01/30 11:50:20;;;;;;;11.85;3.83;;;;;;;3.33;100.00;96327.78;5173625;27;20050;-55
2022/01/30 11:52:58;;;;;;;12.43;2.53;;;;;;;3.28;100.00;96334.38;5173586;27;20050;-56
2022/01/30 11:55:56;;;;;;;13.82;3.13;;;;;;;3.22;100.00;96329.72;5173650;27;20053;-55
2022/01/30 11:58:43;;;;;;;9.40;2.45;;;;;;;3.16;100.00;96337.44;5173642;27;20046;-56
2022/01/30 12:01:35;;;;;;;10.15;2.38;;;;;;;3.26;100.00;96349.47;5173161;27;20500;-58
2022/01/30 12:04:03;;;;;;;10.48;2.58;;;;;;;3.35;100.00;96349.09;5173254;27;20516;-56